createdAt,value
2018-12-01T06:56:29.602Z,108.00
2018-12-01T06:57:29.494Z,112.00
2018-12-01T06:59:22.943Z,132.00
2018-12-01T07:00:22.937Z,144.00
2018-12-01T07:02:15.798Z,160.00
2018-12-01T07:03:15.862Z,172.00
2018-12-01T07:05:10.160Z,176.00
2018-12-01T07:06:09.950Z,196.00
2018-12-01T07:08:02.727Z,232.00
2018-12-01T07:09:02.859Z,240.00
2018-12-01T07:10:56.117Z,268.00
2018-12-01T07:11:56.032Z,272.00
2018-12-01T07:13:48.951Z,272.00
2018-12-01T07:14:48.893Z,292.00
2018-12-01T07:15:48.871Z,300.00
2018-12-01T07:16:48.901Z,280.00
2018-12-01T07:17:48.860Z,280.00
2018-12-01T07:18:48.851Z,292.00
2018-12-01T07:19:48.848Z,324.00
2018-12-01T07:20:48.838Z,232.00
2018-12-01T07:21:48.836Z,260.00
2018-12-01T07:22:48.819Z,260.00
2018-12-01T07:23:48.824Z,248.00
2018-12-01T07:24:48.807Z,264.00
2018-12-01T07:25:48.799Z,288.00
2018-12-01T07:26:48.809Z,276.00
2018-12-01T07:27:48.791Z,256.00
2018-12-01T07:28:48.780Z,324.00
2018-12-01T07:29:48.774Z,352.00
2018-12-01T07:30:48.764Z,376.00
2018-12-01T07:31:48.770Z,456.00
2018-12-01T07:32:48.757Z,492.00
2018-12-01T07:33:48.750Z,560.00
2018-12-01T07:34:48.741Z,664.00
2018-12-01T07:35:50.462Z,696.00
2018-12-01T07:36:48.729Z,748.00
2018-12-01T07:37:48.720Z,812.00
2018-12-01T07:38:48.717Z,976.00
2018-12-01T07:39:48.714Z,1056.00
2018-12-01T07:40:48.702Z,1088.00
2018-12-01T07:41:48.701Z,1232.00
2018-12-01T07:42:48.695Z,1184.00
2018-12-01T07:43:48.688Z,1240.00
2018-12-01T07:44:48.687Z,1188.00
2018-12-01T07:45:48.682Z,896.00
2018-12-01T07:46:48.669Z,908.00
2018-12-01T07:47:48.659Z,1012.00
2018-12-01T07:48:48.654Z,904.00
2018-12-01T07:49:48.686Z,1084.00
2018-12-01T07:50:48.645Z,1032.00
2018-12-01T07:51:49.457Z,836.00
2018-12-01T07:52:48.632Z,712.00
2018-12-01T07:53:48.636Z,612.00
2018-12-01T07:54:48.619Z,508.00
2018-12-01T07:55:48.617Z,800.00
2018-12-01T07:56:48.676Z,588.00
2018-12-01T07:57:48.618Z,812.00
2018-12-01T07:58:48.600Z,816.00
2018-12-01T07:59:48.606Z,892.00
2018-12-01T08:00:48.585Z,804.00
2018-12-01T08:01:48.595Z,804.00
2018-12-01T08:02:48.576Z,992.00
2018-12-01T08:03:48.572Z,988.00
2018-12-01T08:04:48.563Z,1128.00
2018-12-01T08:05:48.578Z,1368.00
2018-12-01T08:06:48.556Z,1500.00
2018-12-01T08:07:48.548Z,1368.00
2018-12-01T08:08:48.545Z,1388.00
2018-12-01T08:09:48.556Z,996.00
2018-12-01T08:10:48.533Z,1064.00
2018-12-01T08:11:48.530Z,1144.00
2018-12-01T08:12:48.533Z,1960.00
2018-12-01T08:13:48.520Z,2068.00
2018-12-01T08:14:48.544Z,2652.00
2018-12-01T08:15:48.511Z,2916.00
2018-12-01T08:16:48.539Z,2972.00
2018-12-01T08:17:48.503Z,2248.00
2018-12-01T08:18:48.495Z,2312.00
2018-12-01T08:19:48.489Z,2552.00
2018-12-01T08:20:48.488Z,2356.00
2018-12-01T08:21:48.486Z,2556.00
2018-12-01T08:22:48.476Z,1524.00
2018-12-01T08:23:48.537Z,1228.00
2018-12-01T08:24:48.464Z,1320.00
2018-12-01T08:25:48.483Z,1460.00
2018-12-01T08:26:48.458Z,1732.00
2018-12-01T08:27:48.489Z,1344.00
2018-12-01T08:28:48.464Z,1036.00
2018-12-01T08:29:48.462Z,1224.00
2018-12-01T08:30:48.467Z,1980.00
2018-12-01T08:31:48.431Z,2396.00
2018-12-01T08:32:48.487Z,2560.00
2018-12-01T08:34:07.416Z,2528.00
2018-12-01T08:35:07.454Z,2604.00
2018-12-01T08:37:03.004Z,3148.00
2018-12-01T08:38:03.488Z,3644.00
2018-12-01T08:39:55.823Z,2312.00
2018-12-01T08:40:55.837Z,1716.00
2018-12-01T08:42:50.311Z,1180.00
2018-12-01T08:43:49.969Z,2540.00
2018-12-01T08:45:42.955Z,3172.00
2018-12-01T08:46:42.776Z,3292.00
2018-12-01T08:47:42.766Z,2660.00
2018-12-01T08:48:42.740Z,11684.00
2018-12-01T08:49:42.726Z,3196.00
2018-12-01T08:50:42.701Z,3276.00
2018-12-01T08:51:42.761Z,8764.00
2018-12-01T08:52:42.712Z,4176.00
2018-12-01T08:53:42.714Z,15008.00
2018-12-01T08:54:42.687Z,2420.00
2018-12-01T08:55:42.696Z,4380.00
2018-12-01T08:56:42.681Z,4016.00
2018-12-01T08:57:42.680Z,6112.00
2018-12-01T08:58:42.681Z,5764.00
2018-12-01T08:59:42.700Z,4100.00
2018-12-01T09:00:42.668Z,6720.00
2018-12-01T09:01:42.676Z,8236.00
2018-12-01T09:02:51.772Z,6744.00
2018-12-01T09:05:01.594Z,15744.00
2018-12-01T09:06:08.638Z,18144.00
2018-12-01T09:07:54.416Z,11832.00
2018-12-01T09:08:54.864Z,16160.00
2018-12-01T09:12:33.072Z,18272.00
2018-12-01T09:15:26.168Z,8688.00
2018-12-01T09:16:26.116Z,16960.00
2018-12-01T09:18:19.632Z,15648.00
2018-12-01T09:19:19.693Z,24960.00
2018-12-01T09:21:13.074Z,9308.00
2018-12-01T09:22:13.029Z,4396.00
2018-12-01T09:24:05.928Z,36224.00
2018-12-01T09:25:05.959Z,26912.00
2018-12-01T09:28:40.519Z,5368.00
2018-12-01T09:29:39.081Z,1876.00
2018-12-01T09:30:40.681Z,1160.00
2018-12-01T09:31:40.536Z,964.00
2018-12-01T09:32:40.779Z,968.00
2018-12-01T09:33:40.486Z,1124.00
2018-12-01T09:34:41.043Z,1040.00
2018-12-01T09:35:46.580Z,780.00
2018-12-01T09:36:40.486Z,1260.00
2018-12-01T09:37:40.597Z,1728.00
2018-12-01T09:38:39.936Z,1280.00
2018-12-01T09:39:38.959Z,4692.00
2018-12-01T09:40:40.517Z,2428.00
2018-12-01T09:41:46.167Z,4164.00
2018-12-01T09:43:49.267Z,1716.00
2018-12-01T09:44:34.598Z,1932.00
2018-12-01T09:45:35.431Z,1792.00
2018-12-01T10:22:44.624Z,2860.00
2018-12-01T10:24:01.541Z,2300.00
2018-12-01T10:26:10.862Z,4080.00
2018-12-01T10:27:00.100Z,1564.00
2018-12-01T10:33:46.280Z,564.00
2018-12-01T10:43:05.150Z,620.00
2018-12-01T10:44:05.122Z,588.00
2018-12-01T10:45:59.016Z,1728.00
2018-12-01T10:46:59.032Z,1308.00
2018-12-01T10:47:58.891Z,1000.00
2018-12-01T10:48:58.939Z,1452.00
2018-12-01T10:49:58.830Z,1584.00
2018-12-01T10:50:58.815Z,1544.00
2018-12-01T10:51:58.831Z,1888.00
2018-12-01T10:52:58.809Z,2076.00
2018-12-01T10:53:58.807Z,2360.00
2018-12-01T10:54:58.801Z,2152.00
2018-12-01T10:55:58.804Z,2344.00
2018-12-01T10:56:58.796Z,2208.00
2018-12-01T10:57:58.801Z,2004.00
2018-12-01T10:58:58.787Z,2236.00
2018-12-01T10:59:58.811Z,2856.00
2018-12-01T11:00:58.783Z,2996.00
2018-12-01T11:01:58.778Z,1452.00
2018-12-01T11:02:58.780Z,1068.00
2018-12-01T11:03:58.768Z,876.00
2018-12-01T11:04:58.767Z,736.00
2018-12-01T11:05:58.761Z,632.00
2018-12-01T11:06:58.759Z,780.00
2018-12-01T11:08:06.511Z,1076.00
2018-12-01T11:14:29.431Z,1800.00
2018-12-01T11:24:15.189Z,1900.00
2018-12-01T11:24:24.104Z,1704.00
2018-12-01T11:31:06.627Z,808.00
2018-12-01T11:31:50.710Z,692.00
2018-12-01T11:32:42.558Z,580.00
2018-12-01T11:33:42.572Z,584.00
2018-12-01T11:34:42.682Z,524.00
2018-12-01T11:35:51.689Z,604.00
2018-12-01T11:37:36.525Z,608.00
2018-12-01T11:39:50.326Z,844.00
2018-12-01T11:40:52.932Z,952.00
2018-12-01T11:41:50.405Z,988.00
2018-12-01T11:42:50.319Z,1120.00
2018-12-01T11:43:50.257Z,1236.00
2018-12-01T11:44:50.336Z,1064.00
2018-12-01T11:45:50.611Z,1276.00
2018-12-01T11:46:50.237Z,1380.00
2018-12-01T11:47:50.815Z,1652.00
2018-12-01T11:48:50.320Z,1160.00
2018-12-01T11:49:50.223Z,1336.00
2018-12-01T11:50:50.250Z,1476.00
2018-12-01T11:53:56.816Z,2132.00
2018-12-01T12:06:45.283Z,1116.00
2018-12-01T12:26:26.562Z,652.00
2018-12-01T12:27:42.956Z,588.00
2018-12-01T12:28:43.469Z,548.00
2018-12-01T12:30:33.633Z,508.00
2018-12-01T12:49:30.647Z,524.00
2018-12-01T13:00:25.765Z,684.00
2018-12-01T13:05:01.443Z,356.00
2018-12-01T13:21:07.413Z,180.00
2018-12-01T13:22:09.992Z,168.00
2018-12-01T13:24:26.522Z,116.00
2018-12-01T13:25:38.549Z,128.00
2018-12-01T13:28:30.133Z,112.00
2018-12-01T13:30:02.700Z,136.00
2018-12-01T13:31:02.594Z,144.00
2018-12-01T13:32:57.185Z,152.00
2018-12-01T13:33:57.305Z,148.00
2018-12-01T13:34:57.133Z,124.00
2018-12-01T13:35:57.151Z,132.00
2018-12-01T13:37:04.350Z,132.00
2018-12-01T13:38:50.726Z,96.00
2018-12-01T13:39:50.800Z,92.00
2018-12-01T13:41:44.174Z,92.00
2018-12-01T13:43:00.272Z,96.00
2018-12-01T13:43:44.078Z,96.00
2018-12-01T13:44:44.158Z,92.00
2018-12-01T13:45:44.026Z,88.00
2018-12-01T13:46:43.967Z,108.00
2018-12-01T13:47:43.994Z,108.00
2018-12-01T13:48:43.953Z,108.00
2018-12-01T13:49:43.949Z,136.00
2018-12-01T13:50:43.938Z,168.00
2018-12-01T13:51:43.944Z,204.00
2018-12-01T13:52:43.937Z,212.00
2018-12-01T13:53:43.925Z,216.00
2018-12-01T13:54:43.920Z,244.00
2018-12-01T13:55:43.917Z,208.00
2018-12-01T13:56:45.465Z,184.00
2018-12-01T13:57:43.935Z,188.00
2018-12-01T13:59:38.663Z,152.00
2018-12-01T14:00:38.297Z,180.00
2018-12-01T14:02:31.158Z,220.00
2018-12-01T14:03:31.064Z,216.00
2018-12-01T14:05:24.107Z,216.00
2018-12-01T14:06:24.057Z,212.00
2018-12-01T14:07:23.910Z,208.00
2018-12-01T14:08:23.870Z,224.00
2018-12-01T14:09:23.875Z,208.00
2018-12-01T14:10:23.865Z,180.00
2018-12-01T14:11:24.285Z,156.00
2018-12-01T14:12:23.878Z,136.00
2018-12-01T14:13:23.866Z,140.00
2018-12-01T14:14:23.840Z,176.00
2018-12-01T14:15:23.842Z,288.00
2018-12-01T14:16:23.838Z,360.00
2018-12-01T14:17:23.827Z,376.00
2018-12-01T14:18:23.819Z,364.00
2018-12-01T14:19:23.845Z,344.00
2018-12-01T14:20:23.829Z,376.00
2018-12-01T14:21:23.842Z,376.00
2018-12-01T14:22:23.808Z,336.00
2018-12-01T14:23:23.796Z,332.00
2018-12-01T14:24:23.799Z,344.00
2018-12-01T14:25:23.790Z,316.00
2018-12-01T14:26:23.783Z,272.00
2018-12-01T14:28:16.870Z,240.00
2018-12-01T14:29:16.827Z,216.00
2018-12-01T14:31:10.665Z,168.00
2018-12-01T14:32:10.733Z,120.00
2018-12-01T14:34:04.119Z,76.00
2018-12-01T14:35:04.056Z,72.00
2018-12-01T14:36:57.377Z,84.00
2018-12-01T14:37:57.459Z,80.00
2018-12-01T14:39:50.379Z,76.00
2018-12-01T14:40:50.232Z,88.00
2018-12-01T14:42:43.142Z,64.00
2018-12-01T14:43:43.199Z,60.00
2018-12-01T14:45:36.510Z,64.00
2018-12-01T14:46:36.453Z,56.00
2018-12-01T14:48:29.367Z,44.00
2018-12-01T14:49:29.569Z,40.00
2018-12-01T14:51:22.972Z,40.00
2018-12-01T14:52:22.713Z,52.00
2018-12-01T14:54:15.647Z,64.00
2018-12-01T14:55:15.639Z,68.00
2018-12-01T14:57:08.605Z,52.00
2018-12-01T14:58:08.445Z,40.00
2018-12-01T14:59:08.616Z,36.00
2018-12-01T15:00:09.167Z,36.00
2018-12-01T15:01:09.971Z,44.00
2018-12-01T15:02:08.401Z,32.00
2018-12-01T15:03:08.381Z,36.00
2018-12-01T15:04:08.413Z,32.00
2018-12-01T15:05:08.434Z,28.00
2018-12-01T15:06:08.362Z,28.00
2018-12-01T15:07:08.359Z,28.00
2018-12-01T15:08:08.350Z,28.00
2018-12-01T15:09:08.353Z,32.00
2018-12-01T15:10:08.353Z,36.00
2018-12-01T15:11:08.339Z,40.00
2018-12-01T15:12:08.331Z,32.00
2018-12-01T15:13:08.328Z,28.00
2018-12-01T15:14:08.337Z,28.00
2018-12-01T15:15:08.393Z,28.00
2018-12-01T15:16:08.340Z,20.00
2018-12-01T15:17:09.988Z,16.00
2018-12-01T15:19:33.637Z,16.00
2018-12-01T15:20:33.929Z,16.00
2018-12-01T15:22:26.191Z,8.00
2018-12-01T15:23:33.547Z,4.00
2018-12-01T15:25:20.072Z,8.00
2018-12-01T15:26:29.298Z,8.00
2018-12-01T15:28:14.059Z,8.00
2018-12-01T15:29:14.154Z,4.00
2018-12-01T15:31:06.865Z,4.00
2018-12-01T15:32:06.791Z,4.00
2018-12-01T15:34:02.355Z,0.00
2018-12-01T15:35:02.190Z,4.00
2018-12-01T15:36:55.091Z,4.00
2018-12-01T15:37:55.219Z,0.00
2018-12-01T15:39:48.608Z,0.00
2018-12-01T15:40:48.564Z,0.00
2018-12-01T15:42:41.354Z,0.00
2018-12-01T15:43:42.241Z,0.00
2018-12-01T15:45:34.937Z,0.00
2018-12-01T15:46:34.888Z,0.00
2018-12-01T15:47:34.952Z,0.00
2018-12-01T15:48:34.838Z,0.00
2018-12-01T15:49:34.810Z,0.00
2018-12-01T15:50:34.726Z,0.00
2018-12-01T15:51:34.669Z,0.00
2018-12-01T15:52:34.677Z,0.00
2018-12-01T15:53:34.680Z,0.00
2018-12-01T15:54:34.659Z,0.00
2018-12-01T15:55:34.662Z,0.00
2018-12-01T15:56:34.644Z,0.00
2018-12-01T15:57:34.635Z,0.00
2018-12-01T15:58:34.637Z,0.00
2018-12-01T15:59:34.643Z,0.00
2018-12-01T16:00:34.628Z,0.00
2018-12-01T16:01:34.619Z,0.00
2018-12-01T16:02:34.628Z,0.00
2018-12-01T16:03:34.629Z,0.00
2018-12-01T16:04:34.601Z,0.00
2018-12-01T16:05:34.592Z,0.00
2018-12-01T16:06:34.589Z,0.00
2018-12-01T16:07:34.581Z,0.00
2018-12-01T16:08:34.575Z,0.00
2018-12-01T16:09:34.571Z,0.00
2018-12-01T16:10:34.568Z,0.00
2018-12-01T16:11:34.570Z,0.00
2018-12-01T16:12:34.556Z,0.00
2018-12-01T16:13:34.551Z,0.00
2018-12-01T16:14:34.545Z,0.00
2018-12-01T16:15:34.540Z,0.00
2018-12-01T16:16:34.537Z,0.00
2018-12-01T16:17:34.531Z,0.00
2018-12-01T16:18:34.529Z,0.00
2018-12-01T16:19:34.549Z,0.00
2018-12-01T16:20:34.514Z,0.00
2018-12-01T16:21:34.534Z,0.00
2018-12-01T16:22:34.504Z,0.00
2018-12-01T16:23:34.500Z,0.00
2018-12-01T16:24:34.497Z,0.00
2018-12-01T16:25:34.489Z,0.00
2018-12-01T16:26:35.180Z,0.00
2018-12-01T16:27:34.503Z,0.00
2018-12-01T16:28:34.477Z,0.00
2018-12-01T16:29:34.489Z,0.00
2018-12-01T16:30:34.465Z,0.00
2018-12-01T16:31:34.457Z,0.00
2018-12-01T16:32:34.457Z,0.00
2018-12-01T16:33:34.446Z,0.00
2018-12-01T16:34:34.445Z,0.00
2018-12-01T16:35:34.442Z,0.00
2018-12-01T16:36:34.431Z,0.00
2018-12-01T16:37:34.426Z,0.00
2018-12-01T16:38:34.424Z,0.00
2018-12-01T16:39:34.418Z,0.00
2018-12-01T16:40:34.411Z,0.00
2018-12-01T16:41:34.407Z,0.00
2018-12-01T16:42:34.444Z,0.00
2018-12-01T16:43:34.411Z,0.00
2018-12-01T16:44:34.394Z,0.00
2018-12-01T16:45:34.390Z,0.00
2018-12-01T16:46:34.382Z,0.00
2018-12-01T16:47:34.379Z,0.00
2018-12-01T16:48:34.380Z,0.00
2018-12-01T16:49:35.188Z,0.00
2018-12-01T16:50:34.359Z,0.00
2018-12-01T16:51:34.357Z,0.00
2018-12-01T16:52:34.352Z,0.00
2018-12-01T16:53:34.344Z,0.00
2018-12-01T16:54:34.339Z,0.00
2018-12-01T16:55:34.336Z,0.00
2018-12-01T16:56:34.333Z,0.00
2018-12-01T16:57:34.353Z,0.00
2018-12-01T16:58:34.329Z,0.00
2018-12-01T16:59:34.320Z,0.00
2018-12-01T17:00:34.314Z,0.00
2018-12-01T17:01:34.356Z,0.00
2018-12-01T17:02:34.304Z,0.00
2018-12-01T17:03:34.298Z,0.00
2018-12-01T17:04:34.290Z,0.00
2018-12-01T17:05:34.297Z,0.00
2018-12-01T17:06:34.284Z,0.00
2018-12-01T17:07:34.286Z,0.00
2018-12-01T17:08:34.302Z,0.00
2018-12-01T17:09:34.329Z,0.00
2018-12-01T17:10:34.278Z,0.00
2018-12-01T17:11:34.302Z,0.00
2018-12-01T17:12:34.279Z,0.00
2018-12-01T17:13:34.244Z,0.00
2018-12-01T17:14:34.252Z,0.00
2018-12-01T17:15:45.441Z,0.00
2018-12-01T17:16:34.235Z,0.00
2018-12-01T17:17:34.229Z,0.00
2018-12-01T17:18:34.247Z,0.00
2018-12-01T17:19:34.246Z,0.00
2018-12-01T17:20:35.290Z,0.00
2018-12-01T17:21:34.211Z,0.00
2018-12-01T17:22:34.211Z,0.00
2018-12-01T17:23:34.201Z,0.00
2018-12-01T17:24:34.190Z,0.00
2018-12-01T17:25:34.212Z,0.00
2018-12-01T17:26:34.176Z,0.00
2018-12-01T17:27:34.190Z,0.00
2018-12-01T17:28:34.710Z,0.00
2018-12-01T17:29:36.602Z,0.00
2018-12-01T17:30:34.156Z,0.00
2018-12-01T17:31:34.156Z,0.00
2018-12-01T17:32:34.143Z,0.00
2018-12-01T17:33:34.168Z,0.00
2018-12-01T17:34:34.176Z,0.00
2018-12-01T17:35:34.165Z,0.00
2018-12-01T17:36:34.187Z,0.00
2018-12-01T17:37:34.180Z,0.00
2018-12-01T17:38:34.754Z,0.00
2018-12-01T17:39:35.762Z,0.00
2018-12-01T17:40:34.155Z,0.00
2018-12-01T17:41:34.132Z,0.00
2018-12-01T17:42:34.143Z,0.00
2018-12-01T17:43:34.132Z,0.00
2018-12-01T17:44:34.121Z,0.00
